This is the latest recevied weather packets stored in our database for station/object LRSM. If no packets are shown the sender has not sent any weather packets the latest 10 day(s).
| Time | Temp. | Humidity | Pressure | Rain* | Wind** | Luminosity | Snow |
|---|---|---|---|---|---|---|---|
| 1777536213 | 12.22° C | 33% | 1026 hPa | - | - | - | - |
| 1777535310 | 11.11° C | 35% | 1026 hPa | - | - | - | - |
| 1777534413 | 11.11° C | 35% | 1026 hPa | - | - | - | - |
| 1777533509 | 11.11° C | 35% | 1026 hPa | - | - | - | - |
| 1777532613 | 11.11° C | 35% | 1026 hPa | - | - | - | - |
| 1777531712 | 10° C | 40% | 1026 hPa | - | - | - | - |
| 1777530812 | 10° C | 40% | 1026 hPa | - | - | - | - |
| 1777529913 | 7.78° C | 43% | 1026 hPa | - | - | - | - |
| 1777529012 | 7.78° C | 43% | 1026 hPa | - | - | - | - |
| 1777528113 | 7.22° C | 49% | 1025 hPa | - | - | - | - |
| 1777527213 | 7.22° C | 49% | 1025 hPa | - | - | - | - |
| 1777526312 | 6.11° C | 49% | 1025 hPa | - | - | - | - |
| 1777525413 | 6.11° C | 49% | 1025 hPa | - | - | - | - |
| 1777524512 | 5° C | 49% | 1025 hPa | - | - | - | - |
| 1777523613 | 5° C | 49% | 1025 hPa | - | - | - | - |
| 1777522712 | 2.22° C | 60% | 1025 hPa | - | - | - | - |
| 1777521812 | 2.22° C | 60% | 1025 hPa | - | - | - | - |
| 1777520913 | 1.11° C | 60% | 1025 hPa | - | - | - | - |
| 1777520012 | 1.11° C | 60% | 1025 hPa | - | - | - | - |
| 1777519114 | 2.22° C | 56% | 1025 hPa | - | - | - | - |
| 1777518212 | 2.22° C | 56% | 1025 hPa | - | - | - | - |
| 1777517313 | 3.89° C | 52% | 1024 hPa | - | - | - | - |
| 1777516413 | 3.89° C | 52% | 1024 hPa | - | - | - | - |
| 1777515512 | 2.78° C | 56% | 1024 hPa | - | - | - | - |
| 1777514612 | 2.78° C | 56% | 1024 hPa | - | - | - | - |
* Rain since midnight (hover to see other rain measurements)
** Current wind speed in m/s (hover to see current wind gust speed)